Fort McMurray Airport
CYMM : now visible

Airfield :











YOU CAN JOIN US ON...

 
LOGIN :

Register | Disclaimer

   EN    FR    IT 

 









Legend :    VFR   Marginal VFR   IFR   Intensive IFR   Very Intensive IFR
Visi :
Ceiling :
>= 8 km
>= 3000ft
5 to 8 km
1000 to 3000 ft
1500m to 5 km
500 to 1000 ft
800 to 1500m
200 to 500 ft
< 800m
< 200 ft
Symbols :   Thunderstorms  Fog  Heavy snow  Heavy precipitations  Wind > 20 kt






- Airport Elevation : 1211 ft
- IATA code : YMM


CYMM - Fort McMurray

CURRENT METAR :
  • 200819Z AUTO 12002KT 9SM OVC046 M05/M09 A2997 RMK SLP174

EXPIRED METARs :
  • 200800Z AUTO 10002KT 9SM -SN FEW033 OVC046 M05/M09 A2996 RMK SLP173
  • 200729Z AUTO 09002KT 9SM -SN FEW030 OVC046 M05/M09 A2996 RMK SLP172
  • 200700Z AUTO 09002KT 9SM FEW032 OVC048 M05/M09 A2996 RMK SLP171
  • 200644Z AUTO 00000KT 9SM FEW034 OVC048 M05/M09 A2996 RMK SLP171
  • 200633Z AUTO 11002KT 9SM -SN FEW034 OVC048 M05/M10 A2996 RMK SLP171
  • 200600Z AUTO 00000KT 9SM OVC048 M05/M10 A2996 RMK SLP171

TAF TAF CYMM
Valid from the 20 at 07:00 until the 20 at 19:00 UTC


200638Z 2007/2019 VRB03KT P6SM SCT020 BKN040
TEMPO 2007/2019 5SM -SN OVC015
BECMG 2014/2016 25006KT RMK FCST BASED ON AUTO OBS. NXT FCST BY 201300Z
CZEG FIR / North America



MET'MAP, your aeronautical weather chart ! - Copyright ORBIFLY December 2007 - Disclaimer

ORBIFLY MET'MAP TEAM :

Programming & Development : Alexandra Zaïnal
Concept & original design : Baudouin d'Aumeries
Assistance for programming : Marc-Olivier Méhu
Technical & hardware support : Manuel Goepfert

Contact : metmap@orbifly.com




SOURCES & CREDITS :

   NOAA       Earth
Advisory